sensor_id;sensor_type;location;lat;lon;timestamp;P1;durP1;ratioP1;P2;durP2;ratioP2
68653;SDS011;55636;51.108;13.622;2024-01-15T00:00:35;7.10;;;6.00;;
68653;SDS011;55636;51.108;13.622;2024-01-15T00:01:41;7.63;;;6.17;;
68653;SDS011;55636;51.108;13.622;2024-01-15T00:02:45;6.93;;;5.90;;
68653;SDS011;55636;51.108;13.622;2024-01-15T00:03:47;6.73;;;5.83;;
68653;SDS011;55636;51.108;13.622;2024-01-15T00:04:50;6.47;;;5.63;;
68653;SDS011;55636;51.108;13.622;2024-01-15T00:05:52;7.00;;;5.87;;
68653;SDS011;55636;51.108;13.622;2024-01-15T00:06:55;8.23;;;5.90;;
68653;SDS011;55636;51.108;13.622;2024-01-15T00:07:57;7.43;;;6.07;;
68653;SDS011;55636;51.108;13.622;2024-01-15T00:09:00;6.40;;;5.60;;
68653;SDS011;55636;51.108;13.622;2024-01-15T00:10:02;7.27;;;5.70;;
68653;SDS011;55636;51.108;13.622;2024-01-15T00:11:05;6.60;;;5.30;;
68653;SDS011;55636;51.108;13.622;2024-01-15T00:12:07;6.83;;;6.07;;
68653;SDS011;55636;51.108;13.622;2024-01-15T00:13:09;8.10;;;6.27;;
68653;SDS011;55636;51.108;13.622;2024-01-15T00:14:12;7.03;;;6.10;;
68653;SDS011;55636;51.108;13.622;2024-01-15T00:15:16;7.20;;;6.10;;
68653;SDS011;55636;51.108;13.622;2024-01-15T00:16:19;7.53;;;5.97;;
68653;SDS011;55636;51.108;13.622;2024-01-15T00:17:21;7.30;;;6.10;;
68653;SDS011;55636;51.108;13.622;2024-01-15T00:18:23;7.90;;;5.97;;
68653;SDS011;55636;51.108;13.622;2024-01-15T00:19:26;7.20;;;5.87;;
68653;SDS011;55636;51.108;13.622;2024-01-15T00:20:29;7.70;;;6.00;;
68653;SDS011;55636;51.108;13.622;2024-01-15T00:21:32;8.07;;;6.10;;
68653;SDS011;55636;51.108;13.622;2024-01-15T00:22:34;6.80;;;6.00;;
68653;SDS011;55636;51.108;13.622;2024-01-15T00:23:42;6.73;;;5.73;;
68653;SDS011;55636;51.108;13.622;2024-01-15T00:24:48;7.23;;;6.00;;
68653;SDS011;55636;51.108;13.622;2024-01-15T00:25:51;7.13;;;6.00;;
68653;SDS011;55636;51.108;13.622;2024-01-15T00:26:53;8.13;;;5.87;;
68653;SDS011;55636;51.108;13.622;2024-01-15T00:27:56;6.93;;;5.73;;
68653;SDS011;55636;51.108;13.622;2024-01-15T00:28:58;7.00;;;5.70;;
68653;SDS011;55636;51.108;13.622;2024-01-15T00:30:01;7.03;;;5.80;;
68653;SDS011;55636;51.108;13.622;2024-01-15T00:31:04;6.90;;;5.60;;
68653;SDS011;55636;51.108;13.622;2024-01-15T00:32:07;7.60;;;5.80;;
68653;SDS011;55636;51.108;13.622;2024-01-15T00:33:09;7.10;;;5.43;;
68653;SDS011;55636;51.108;13.622;2024-01-15T00:34:14;7.10;;;6.33;;
68653;SDS011;55636;51.108;13.622;2024-01-15T00:35:17;7.33;;;5.67;;
68653;SDS011;55636;51.108;13.622;2024-01-15T00:36:19;6.80;;;5.60;;
68653;SDS011;55636;51.108;13.622;2024-01-15T00:37:21;7.33;;;6.10;;
68653;SDS011;55636;51.108;13.622;2024-01-15T00:38:24;6.70;;;5.70;;
68653;SDS011;55636;51.108;13.622;2024-01-15T00:39:26;7.07;;;6.10;;
68653;SDS011;55636;51.108;13.622;2024-01-15T00:40:29;6.97;;;5.83;;
68653;SDS011;55636;51.108;13.622;2024-01-15T00:41:31;6.97;;;5.80;;
68653;SDS011;55636;51.108;13.622;2024-01-15T00:42:34;7.77;;;6.03;;
68653;SDS011;55636;51.108;13.622;2024-01-15T00:43:36;7.40;;;6.17;;
68653;SDS011;55636;51.108;13.622;2024-01-15T00:44:38;6.93;;;5.80;;
68653;SDS011;55636;51.108;13.622;2024-01-15T00:45:41;7.40;;;6.23;;
68653;SDS011;55636;51.108;13.622;2024-01-15T00:46:44;7.30;;;6.13;;
68653;SDS011;55636;51.108;13.622;2024-01-15T00:47:48;8.33;;;6.67;;
68653;SDS011;55636;51.108;13.622;2024-01-15T00:48:50;6.77;;;6.07;;
68653;SDS011;55636;51.108;13.622;2024-01-15T00:49:53;8.23;;;6.50;;
68653;SDS011;55636;51.108;13.622;2024-01-15T00:50:55;8.10;;;6.53;;
68653;SDS011;55636;51.108;13.622;2024-01-15T00:51:58;8.10;;;6.60;;
68653;SDS011;55636;51.108;13.622;2024-01-15T00:53:00;8.30;;;6.27;;
68653;SDS011;55636;51.108;13.622;2024-01-15T00:54:03;7.67;;;6.47;;
68653;SDS011;55636;51.108;13.622;2024-01-15T00:55:05;7.63;;;6.30;;
68653;SDS011;55636;51.108;13.622;2024-01-15T00:56:08;8.73;;;6.23;;
68653;SDS011;55636;51.108;13.622;2024-01-15T00:57:10;8.30;;;6.33;;
68653;SDS011;55636;51.108;13.622;2024-01-15T00:58:12;8.30;;;6.30;;
68653;SDS011;55636;51.108;13.622;2024-01-15T00:59:15;7.33;;;6.30;;
68653;SDS011;55636;51.108;13.622;2024-01-15T01:00:17;7.50;;;6.67;;
68653;SDS011;55636;51.108;13.622;2024-01-15T01:01:20;7.63;;;6.37;;
68653;SDS011;55636;51.108;13.622;2024-01-15T01:02:22;7.53;;;6.17;;
68653;SDS011;55636;51.108;13.622;2024-01-15T01:03:25;8.53;;;6.63;;
68653;SDS011;55636;51.108;13.622;2024-01-15T01:04:27;7.57;;;6.37;;
68653;SDS011;55636;51.108;13.622;2024-01-15T01:05:30;8.87;;;6.87;;
68653;SDS011;55636;51.108;13.622;2024-01-15T01:06:32;7.53;;;6.10;;
68653;SDS011;55636;51.108;13.622;2024-01-15T01:07:36;8.37;;;6.67;;
68653;SDS011;55636;51.108;13.622;2024-01-15T01:08:38;7.67;;;6.70;;
68653;SDS011;55636;51.108;13.622;2024-01-15T01:09:41;7.27;;;6.17;;
68653;SDS011;55636;51.108;13.622;2024-01-15T01:10:44;7.93;;;6.37;;
68653;SDS011;55636;51.108;13.622;2024-01-15T01:11:46;7.40;;;6.00;;
68653;SDS011;55636;51.108;13.622;2024-01-15T01:12:48;7.83;;;6.27;;
68653;SDS011;55636;51.108;13.622;2024-01-15T01:13:51;7.67;;;6.50;;
68653;SDS011;55636;51.108;13.622;2024-01-15T01:14:53;8.53;;;6.20;;
68653;SDS011;55636;51.108;13.622;2024-01-15T01:15:55;7.90;;;6.50;;
68653;SDS011;55636;51.108;13.622;2024-01-15T01:16:58;8.77;;;6.80;;
68653;SDS011;55636;51.108;13.622;2024-01-15T01:18:00;7.83;;;6.60;;
68653;SDS011;55636;51.108;13.622;2024-01-15T01:19:03;8.93;;;7.00;;
68653;SDS011;55636;51.108;13.622;2024-01-15T01:20:06;8.60;;;6.53;;
68653;SDS011;55636;51.108;13.622;2024-01-15T01:21:10;8.33;;;6.57;;
68653;SDS011;55636;51.108;13.622;2024-01-15T01:22:13;8.13;;;6.63;;
68653;SDS011;55636;51.108;13.622;2024-01-15T01:23:15;8.17;;;6.87;;
68653;SDS011;55636;51.108;13.622;2024-01-15T01:24:18;8.30;;;6.87;;
68653;SDS011;55636;51.108;13.622;2024-01-15T01:25:20;8.00;;;6.50;;
68653;SDS011;55636;51.108;13.622;2024-01-15T01:26:22;7.83;;;6.13;;
68653;SDS011;55636;51.108;13.622;2024-01-15T01:27:25;7.40;;;6.43;;
68653;SDS011;55636;51.108;13.622;2024-01-15T01:28:27;7.77;;;6.70;;
68653;SDS011;55636;51.108;13.622;2024-01-15T01:29:30;8.73;;;6.87;;
68653;SDS011;55636;51.108;13.622;2024-01-15T01:30:33;8.13;;;6.83;;
68653;SDS011;55636;51.108;13.622;2024-01-15T01:31:35;9.00;;;7.10;;
68653;SDS011;55636;51.108;13.622;2024-01-15T01:32:38;8.07;;;6.83;;
68653;SDS011;55636;51.108;13.622;2024-01-15T01:33:40;8.33;;;6.70;;
68653;SDS011;55636;51.108;13.622;2024-01-15T01:34:43;7.30;;;6.50;;
68653;SDS011;55636;51.108;13.622;2024-01-15T01:35:45;8.00;;;6.50;;
68653;SDS011;55636;51.108;13.622;2024-01-15T01:36:48;9.13;;;6.87;;
68653;SDS011;55636;51.108;13.622;2024-01-15T01:37:51;8.50;;;6.97;;
68653;SDS011;55636;51.108;13.622;2024-01-15T01:38:53;8.37;;;6.63;;
68653;SDS011;55636;51.108;13.622;2024-01-15T01:39:55;8.07;;;6.70;;
68653;SDS011;55636;51.108;13.622;2024-01-15T01:40:58;8.23;;;6.63;;
68653;SDS011;55636;51.108;13.622;2024-01-15T01:42:00;8.63;;;7.10;;
68653;SDS011;55636;51.108;13.622;2024-01-15T01:43:04;7.87;;;6.27;;
68653;SDS011;55636;51.108;13.622;2024-01-15T01:44:07;7.87;;;6.73;;
68653;SDS011;55636;51.108;13.622;2024-01-15T01:45:09;8.03;;;6.63;;
68653;SDS011;55636;51.108;13.622;2024-01-15T01:46:12;8.30;;;7.07;;
68653;SDS011;55636;51.108;13.622;2024-01-15T01:47:14;8.00;;;6.60;;
68653;SDS011;55636;51.108;13.622;2024-01-15T01:48:17;9.77;;;7.17;;
68653;SDS011;55636;51.108;13.622;2024-01-15T01:49:19;9.57;;;6.93;;
68653;SDS011;55636;51.108;13.622;2024-01-15T01:50:22;8.10;;;6.63;;
68653;SDS011;55636;51.108;13.622;2024-01-15T01:51:25;8.20;;;6.83;;
68653;SDS011;55636;51.108;13.622;2024-01-15T01:52:27;8.20;;;6.80;;
68653;SDS011;55636;51.108;13.622;2024-01-15T01:53:29;8.53;;;7.00;;
68653;SDS011;55636;51.108;13.622;2024-01-15T01:54:34;8.17;;;6.67;;
68653;SDS011;55636;51.108;13.622;2024-01-15T01:55:37;8.03;;;6.50;;
68653;SDS011;55636;51.108;13.622;2024-01-15T01:56:41;8.50;;;6.73;;
68653;SDS011;55636;51.108;13.622;2024-01-15T01:57:43;8.20;;;6.77;;
68653;SDS011;55636;51.108;13.622;2024-01-15T01:58:46;10.37;;;7.13;;
68653;SDS011;55636;51.108;13.622;2024-01-15T01:59:49;8.37;;;6.60;;
68653;SDS011;55636;51.108;13.622;2024-01-15T02:00:53;8.00;;;6.90;;
68653;SDS011;55636;51.108;13.622;2024-01-15T02:01:56;8.57;;;6.90;;
68653;SDS011;55636;51.108;13.622;2024-01-15T02:02:59;8.10;;;6.70;;
68653;SDS011;55636;51.108;13.622;2024-01-15T02:04:02;9.00;;;7.00;;
68653;SDS011;55636;51.108;13.622;2024-01-15T02:05:05;7.87;;;6.90;;
68653;SDS011;55636;51.108;13.622;2024-01-15T02:06:08;7.73;;;6.70;;
68653;SDS011;55636;51.108;13.622;2024-01-15T02:07:11;7.80;;;6.50;;
68653;SDS011;55636;51.108;13.622;2024-01-15T02:08:13;8.53;;;6.80;;
68653;SDS011;55636;51.108;13.622;2024-01-15T02:09:19;7.73;;;6.70;;
68653;SDS011;55636;51.108;13.622;2024-01-15T02:10:22;8.07;;;6.57;;
68653;SDS011;55636;51.108;13.622;2024-01-15T02:11:24;8.47;;;6.63;;
68653;SDS011;55636;51.108;13.622;2024-01-15T02:12:27;7.40;;;6.50;;
68653;SDS011;55636;51.108;13.622;2024-01-15T02:13:29;8.77;;;6.67;;
68653;SDS011;55636;51.108;13.622;2024-01-15T02:14:32;9.00;;;6.80;;
68653;SDS011;55636;51.108;13.622;2024-01-15T02:15:34;10.67;;;7.27;;
68653;SDS011;55636;51.108;13.622;2024-01-15T02:16:36;8.03;;;7.00;;
68653;SDS011;55636;51.108;13.622;2024-01-15T02:19:05;9.73;;;7.30;;
68653;SDS011;55636;51.108;13.622;2024-01-15T02:20:08;7.83;;;6.70;;
68653;SDS011;55636;51.108;13.622;2024-01-15T02:21:11;9.03;;;7.23;;
68653;SDS011;55636;51.108;13.622;2024-01-15T02:22:14;8.63;;;7.50;;
68653;SDS011;55636;51.108;13.622;2024-01-15T02:23:16;9.40;;;7.40;;
68653;SDS011;55636;51.108;13.622;2024-01-15T02:24:18;9.73;;;7.47;;
68653;SDS011;55636;51.108;13.622;2024-01-15T02:25:21;10.13;;;7.07;;
68653;SDS011;55636;51.108;13.622;2024-01-15T02:26:23;8.97;;;7.57;;
68653;SDS011;55636;51.108;13.622;2024-01-15T02:27:26;9.17;;;7.20;;
68653;SDS011;55636;51.108;13.622;2024-01-15T02:28:28;8.47;;;7.20;;
68653;SDS011;55636;51.108;13.622;2024-01-15T02:29:31;8.53;;;6.87;;
68653;SDS011;55636;51.108;13.622;2024-01-15T02:30:34;8.90;;;7.20;;
68653;SDS011;55636;51.108;13.622;2024-01-15T02:31:40;9.03;;;7.27;;
68653;SDS011;55636;51.108;13.622;2024-01-15T02:32:42;9.93;;;7.20;;
68653;SDS011;55636;51.108;13.622;2024-01-15T02:33:45;10.57;;;7.70;;
68653;SDS011;55636;51.108;13.622;2024-01-15T02:34:50;10.70;;;7.70;;
68653;SDS011;55636;51.108;13.622;2024-01-15T02:35:53;8.40;;;6.97;;
68653;SDS011;55636;51.108;13.622;2024-01-15T02:36:55;9.47;;;7.37;;
68653;SDS011;55636;51.108;13.622;2024-01-15T02:37:57;9.57;;;7.40;;
68653;SDS011;55636;51.108;13.622;2024-01-15T02:39:00;8.70;;;6.93;;
68653;SDS011;55636;51.108;13.622;2024-01-15T02:40:02;8.37;;;6.97;;
68653;SDS011;55636;51.108;13.622;2024-01-15T02:41:05;9.33;;;7.53;;
68653;SDS011;55636;51.108;13.622;2024-01-15T02:42:07;8.80;;;7.43;;
68653;SDS011;55636;51.108;13.622;2024-01-15T02:43:10;8.80;;;7.50;;
68653;SDS011;55636;51.108;13.622;2024-01-15T02:44:12;8.20;;;7.30;;
68653;SDS011;55636;51.108;13.622;2024-01-15T02:45:14;8.87;;;7.00;;
68653;SDS011;55636;51.108;13.622;2024-01-15T02:46:17;9.53;;;7.10;;
68653;SDS011;55636;51.108;13.622;2024-01-15T02:47:19;9.90;;;7.23;;
68653;SDS011;55636;51.108;13.622;2024-01-15T02:48:22;9.30;;;7.00;;
68653;SDS011;55636;51.108;13.622;2024-01-15T02:49:24;8.97;;;7.17;;
68653;SDS011;55636;51.108;13.622;2024-01-15T02:50:27;8.53;;;7.17;;
68653;SDS011;55636;51.108;13.622;2024-01-15T02:51:29;9.20;;;7.17;;
68653;SDS011;55636;51.108;13.622;2024-01-15T02:52:32;9.10;;;7.33;;
68653;SDS011;55636;51.108;13.622;2024-01-15T02:53:35;9.90;;;7.43;;
68653;SDS011;55636;51.108;13.622;2024-01-15T02:54:38;8.30;;;7.07;;
68653;SDS011;55636;51.108;13.622;2024-01-15T02:55:40;9.03;;;7.40;;
68653;SDS011;55636;51.108;13.622;2024-01-15T02:56:43;9.00;;;7.17;;
68653;SDS011;55636;51.108;13.622;2024-01-15T02:57:45;9.37;;;7.00;;
68653;SDS011;55636;51.108;13.622;2024-01-15T02:58:48;9.00;;;7.37;;
68653;SDS011;55636;51.108;13.622;2024-01-15T02:59:50;8.77;;;6.97;;
68653;SDS011;55636;51.108;13.622;2024-01-15T03:00:52;8.87;;;7.17;;
68653;SDS011;55636;51.108;13.622;2024-01-15T03:01:55;8.37;;;6.70;;
68653;SDS011;55636;51.108;13.622;2024-01-15T03:02:57;7.77;;;6.43;;
68653;SDS011;55636;51.108;13.622;2024-01-15T03:04:00;8.33;;;6.87;;
68653;SDS011;55636;51.108;13.622;2024-01-15T03:05:02;8.50;;;6.90;;
68653;SDS011;55636;51.108;13.622;2024-01-15T03:06:05;8.80;;;7.10;;
68653;SDS011;55636;51.108;13.622;2024-01-15T03:07:07;8.10;;;6.60;;
68653;SDS011;55636;51.108;13.622;2024-01-15T03:08:10;8.13;;;6.87;;
68653;SDS011;55636;51.108;13.622;2024-01-15T03:09:12;8.57;;;6.97;;
68653;SDS011;55636;51.108;13.622;2024-01-15T03:10:14;8.43;;;7.03;;
68653;SDS011;55636;51.108;13.622;2024-01-15T03:11:17;8.87;;;7.30;;
68653;SDS011;55636;51.108;13.622;2024-01-15T03:12:19;9.33;;;7.13;;
68653;SDS011;55636;51.108;13.622;2024-01-15T03:13:22;7.50;;;6.70;;
68653;SDS011;55636;51.108;13.622;2024-01-15T03:14:24;8.33;;;7.00;;
68653;SDS011;55636;51.108;13.622;2024-01-15T03:15:28;9.53;;;7.27;;
68653;SDS011;55636;51.108;13.622;2024-01-15T03:16:30;8.87;;;7.27;;
68653;SDS011;55636;51.108;13.622;2024-01-15T03:17:33;8.43;;;7.17;;
68653;SDS011;55636;51.108;13.622;2024-01-15T03:18:35;8.87;;;6.60;;
68653;SDS011;55636;51.108;13.622;2024-01-15T03:19:38;8.30;;;6.53;;
68653;SDS011;55636;51.108;13.622;2024-01-15T03:20:40;8.30;;;6.83;;
68653;SDS011;55636;51.108;13.622;2024-01-15T03:21:43;9.00;;;7.07;;
68653;SDS011;55636;51.108;13.622;2024-01-15T03:22:45;8.57;;;7.20;;
68653;SDS011;55636;51.108;13.622;2024-01-15T03:23:48;8.53;;;7.20;;
68653;SDS011;55636;51.108;13.622;2024-01-15T03:24:50;8.30;;;6.93;;
68653;SDS011;55636;51.108;13.622;2024-01-15T03:25:54;8.03;;;6.80;;
68653;SDS011;55636;51.108;13.622;2024-01-15T03:26:57;8.93;;;7.17;;
68653;SDS011;55636;51.108;13.622;2024-01-15T03:27:59;10.17;;;7.10;;
68653;SDS011;55636;51.108;13.622;2024-01-15T03:29:01;8.43;;;7.00;;
68653;SDS011;55636;51.108;13.622;2024-01-15T03:30:04;8.93;;;6.90;;
68653;SDS011;55636;51.108;13.622;2024-01-15T03:31:07;7.97;;;6.70;;
68653;SDS011;55636;51.108;13.622;2024-01-15T03:32:09;9.37;;;7.00;;
68653;SDS011;55636;51.108;13.622;2024-01-15T03:33:12;9.43;;;7.43;;
68653;SDS011;55636;51.108;13.622;2024-01-15T03:34:14;9.13;;;7.27;;
68653;SDS011;55636;51.108;13.622;2024-01-15T03:35:17;9.20;;;7.40;;
68653;SDS011;55636;51.108;13.622;2024-01-15T03:36:19;9.27;;;7.30;;
68653;SDS011;55636;51.108;13.622;2024-01-15T03:37:22;9.23;;;7.27;;
68653;SDS011;55636;51.108;13.622;2024-01-15T03:38:24;8.90;;;7.30;;
68653;SDS011;55636;51.108;13.622;2024-01-15T03:39:29;10.27;;;7.60;;
68653;SDS011;55636;51.108;13.622;2024-01-15T03:40:31;9.73;;;7.20;;
68653;SDS011;55636;51.108;13.622;2024-01-15T03:41:34;8.33;;;6.93;;
68653;SDS011;55636;51.108;13.622;2024-01-15T03:42:36;8.93;;;7.30;;
68653;SDS011;55636;51.108;13.622;2024-01-15T03:43:39;8.83;;;7.43;;
68653;SDS011;55636;51.108;13.622;2024-01-15T03:44:42;9.17;;;7.37;;
68653;SDS011;55636;51.108;13.622;2024-01-15T03:45:44;8.57;;;7.10;;
68653;SDS011;55636;51.108;13.622;2024-01-15T03:46:46;7.87;;;6.60;;
68653;SDS011;55636;51.108;13.622;2024-01-15T03:47:49;8.50;;;7.37;;
68653;SDS011;55636;51.108;13.622;2024-01-15T03:48:51;9.00;;;7.27;;
68653;SDS011;55636;51.108;13.622;2024-01-15T03:49:54;8.53;;;7.10;;
68653;SDS011;55636;51.108;13.622;2024-01-15T03:50:56;8.90;;;7.23;;
68653;SDS011;55636;51.108;13.622;2024-01-15T03:51:59;9.13;;;7.17;;
68653;SDS011;55636;51.108;13.622;2024-01-15T03:53:01;8.67;;;7.30;;
68653;SDS011;55636;51.108;13.622;2024-01-15T03:54:04;9.27;;;7.30;;
68653;SDS011;55636;51.108;13.622;2024-01-15T03:55:06;8.33;;;7.20;;
68653;SDS011;55636;51.108;13.622;2024-01-15T03:56:09;9.20;;;7.23;;
68653;SDS011;55636;51.108;13.622;2024-01-15T03:57:12;8.03;;;7.00;;
68653;SDS011;55636;51.108;13.622;2024-01-15T03:58:15;8.67;;;7.03;;
68653;SDS011;55636;51.108;13.622;2024-01-15T03:59:17;7.93;;;7.10;;
68653;SDS011;55636;51.108;13.622;2024-01-15T04:00:20;9.00;;;7.03;;
68653;SDS011;55636;51.108;13.622;2024-01-15T04:01:22;8.87;;;7.43;;
68653;SDS011;55636;51.108;13.622;2024-01-15T04:02:25;8.77;;;7.03;;
68653;SDS011;55636;51.108;13.622;2024-01-15T04:03:27;9.00;;;7.23;;
68653;SDS011;55636;51.108;13.622;2024-01-15T04:04:29;9.03;;;7.33;;
68653;SDS011;55636;51.108;13.622;2024-01-15T04:05:32;9.53;;;7.60;;
68653;SDS011;55636;51.108;13.622;2024-01-15T04:06:34;8.30;;;6.93;;
68653;SDS011;55636;51.108;13.622;2024-01-15T04:07:37;8.40;;;7.03;;
68653;SDS011;55636;51.108;13.622;2024-01-15T04:08:39;9.27;;;7.30;;
68653;SDS011;55636;51.108;13.622;2024-01-15T04:09:42;8.17;;;7.20;;
68653;SDS011;55636;51.108;13.622;2024-01-15T04:10:44;8.57;;;7.13;;
68653;SDS011;55636;51.108;13.622;2024-01-15T04:11:46;8.30;;;6.57;;
68653;SDS011;55636;51.108;13.622;2024-01-15T04:12:49;8.80;;;6.70;;
68653;SDS011;55636;51.108;13.622;2024-01-15T04:13:52;7.77;;;6.70;;
68653;SDS011;55636;51.108;13.622;2024-01-15T04:14:54;9.70;;;7.10;;
68653;SDS011;55636;51.108;13.622;2024-01-15T04:15:56;8.57;;;7.03;;
68653;SDS011;55636;51.108;13.622;2024-01-15T04:16:59;8.47;;;6.57;;
68653;SDS011;55636;51.108;13.622;2024-01-15T04:18:02;8.67;;;7.13;;
68653;SDS011;55636;51.108;13.622;2024-01-15T04:19:04;8.63;;;6.80;;
68653;SDS011;55636;51.108;13.622;2024-01-15T04:20:07;8.60;;;6.53;;
68653;SDS011;55636;51.108;13.622;2024-01-15T04:21:10;9.27;;;7.33;;
68653;SDS011;55636;51.108;13.622;2024-01-15T04:22:12;7.93;;;6.90;;
68653;SDS011;55636;51.108;13.622;2024-01-15T04:23:15;9.00;;;6.70;;
68653;SDS011;55636;51.108;13.622;2024-01-15T04:24:17;8.37;;;6.67;;
68653;SDS011;55636;51.108;13.622;2024-01-15T04:25:20;8.77;;;6.87;;
68653;SDS011;55636;51.108;13.622;2024-01-15T04:26:22;9.10;;;7.00;;
68653;SDS011;55636;51.108;13.622;2024-01-15T04:27:24;7.83;;;6.70;;
68653;SDS011;55636;51.108;13.622;2024-01-15T04:28:27;8.17;;;6.90;;
68653;SDS011;55636;51.108;13.622;2024-01-15T04:29:29;8.40;;;7.10;;
68653;SDS011;55636;51.108;13.622;2024-01-15T04:30:32;8.70;;;7.13;;
68653;SDS011;55636;51.108;13.622;2024-01-15T04:31:34;8.97;;;6.83;;
68653;SDS011;55636;51.108;13.622;2024-01-15T04:32:36;8.10;;;6.97;;
68653;SDS011;55636;51.108;13.622;2024-01-15T04:33:39;8.87;;;7.40;;
68653;SDS011;55636;51.108;13.622;2024-01-15T04:34:41;9.33;;;7.20;;
68653;SDS011;55636;51.108;13.622;2024-01-15T04:35:45;8.80;;;7.00;;
68653;SDS011;55636;51.108;13.622;2024-01-15T04:36:48;9.73;;;6.77;;
68653;SDS011;55636;51.108;13.622;2024-01-15T04:37:50;8.33;;;7.10;;
68653;SDS011;55636;51.108;13.622;2024-01-15T04:38:52;9.43;;;7.27;;
68653;SDS011;55636;51.108;13.622;2024-01-15T04:39:55;8.87;;;6.93;;
68653;SDS011;55636;51.108;13.622;2024-01-15T04:40:59;8.83;;;7.17;;
68653;SDS011;55636;51.108;13.622;2024-01-15T04:42:02;7.93;;;6.63;;
68653;SDS011;55636;51.108;13.622;2024-01-15T04:43:05;7.93;;;6.43;;
68653;SDS011;55636;51.108;13.622;2024-01-15T04:44:07;8.73;;;7.07;;
68653;SDS011;55636;51.108;13.622;2024-01-15T04:45:09;8.33;;;7.00;;
68653;SDS011;55636;51.108;13.622;2024-01-15T04:46:12;8.23;;;6.90;;
68653;SDS011;55636;51.108;13.622;2024-01-15T04:47:14;8.77;;;7.07;;
68653;SDS011;55636;51.108;13.622;2024-01-15T04:48:17;8.67;;;7.07;;
68653;SDS011;55636;51.108;13.622;2024-01-15T04:49:19;9.10;;;6.80;;
68653;SDS011;55636;51.108;13.622;2024-01-15T04:50:22;8.80;;;6.90;;
68653;SDS011;55636;51.108;13.622;2024-01-15T04:51:24;8.60;;;6.80;;
68653;SDS011;55636;51.108;13.622;2024-01-15T04:52:27;8.07;;;6.83;;
68653;SDS011;55636;51.108;13.622;2024-01-15T04:53:29;7.80;;;6.57;;
68653;SDS011;55636;51.108;13.622;2024-01-15T04:54:32;7.87;;;6.53;;
68653;SDS011;55636;51.108;13.622;2024-01-15T04:55:34;8.33;;;6.90;;
68653;SDS011;55636;51.108;13.622;2024-01-15T04:56:36;8.17;;;6.60;;
68653;SDS011;55636;51.108;13.622;2024-01-15T04:57:39;8.17;;;6.70;;
68653;SDS011;55636;51.108;13.622;2024-01-15T04:58:41;10.30;;;7.07;;
68653;SDS011;55636;51.108;13.622;2024-01-15T04:59:44;8.63;;;6.80;;
68653;SDS011;55636;51.108;13.622;2024-01-15T05:00:46;8.70;;;6.73;;
68653;SDS011;55636;51.108;13.622;2024-01-15T05:01:49;8.00;;;6.77;;
68653;SDS011;55636;51.108;13.622;2024-01-15T05:02:51;9.17;;;7.00;;
68653;SDS011;55636;51.108;13.622;2024-01-15T05:03:54;8.67;;;7.23;;
68653;SDS011;55636;51.108;13.622;2024-01-15T05:05:01;8.80;;;7.07;;
68653;SDS011;55636;51.108;13.622;2024-01-15T05:06:03;8.67;;;7.30;;
68653;SDS011;55636;51.108;13.622;2024-01-15T05:07:06;8.67;;;7.00;;
68653;SDS011;55636;51.108;13.622;2024-01-15T05:08:09;9.17;;;7.07;;
68653;SDS011;55636;51.108;13.622;2024-01-15T05:09:11;8.43;;;6.93;;
68653;SDS011;55636;51.108;13.622;2024-01-15T05:10:15;7.60;;;6.70;;
68653;SDS011;55636;51.108;13.622;2024-01-15T05:11:18;8.63;;;7.23;;
68653;SDS011;55636;51.108;13.622;2024-01-15T05:12:20;9.50;;;7.23;;
68653;SDS011;55636;51.108;13.622;2024-01-15T05:13:22;9.17;;;7.23;;
68653;SDS011;55636;51.108;13.622;2024-01-15T05:14:25;8.37;;;6.77;;
68653;SDS011;55636;51.108;13.622;2024-01-15T05:15:27;9.27;;;6.53;;
68653;SDS011;55636;51.108;13.622;2024-01-15T05:16:29;9.37;;;7.00;;
68653;SDS011;55636;51.108;13.622;2024-01-15T05:17:32;8.33;;;6.57;;
68653;SDS011;55636;51.108;13.622;2024-01-15T05:18:34;8.87;;;7.00;;
68653;SDS011;55636;51.108;13.622;2024-01-15T05:19:36;8.23;;;6.63;;
68653;SDS011;55636;51.108;13.622;2024-01-15T05:20:39;8.23;;;6.80;;
68653;SDS011;55636;51.108;13.622;2024-01-15T05:21:42;7.70;;;6.50;;
68653;SDS011;55636;51.108;13.622;2024-01-15T05:22:44;8.47;;;6.50;;
68653;SDS011;55636;51.108;13.622;2024-01-15T05:23:46;9.47;;;6.60;;
68653;SDS011;55636;51.108;13.622;2024-01-15T05:24:49;8.97;;;6.90;;
68653;SDS011;55636;51.108;13.622;2024-01-15T05:25:51;9.43;;;7.10;;
68653;SDS011;55636;51.108;13.622;2024-01-15T05:26:54;8.90;;;7.03;;
68653;SDS011;55636;51.108;13.622;2024-01-15T05:27:56;7.90;;;6.40;;
68653;SDS011;55636;51.108;13.622;2024-01-15T05:28:59;9.53;;;7.00;;
68653;SDS011;55636;51.108;13.622;2024-01-15T05:30:01;9.57;;;6.60;;
68653;SDS011;55636;51.108;13.622;2024-01-15T05:31:04;8.83;;;6.80;;
68653;SDS011;55636;51.108;13.622;2024-01-15T05:32:06;7.90;;;6.73;;
68653;SDS011;55636;51.108;13.622;2024-01-15T05:33:09;8.03;;;6.77;;
68653;SDS011;55636;51.108;13.622;2024-01-15T05:34:11;9.37;;;6.73;;
68653;SDS011;55636;51.108;13.622;2024-01-15T05:35:14;8.50;;;6.77;;
68653;SDS011;55636;51.108;13.622;2024-01-15T05:36:16;8.80;;;6.30;;
68653;SDS011;55636;51.108;13.622;2024-01-15T05:37:18;8.77;;;6.67;;
68653;SDS011;55636;51.108;13.622;2024-01-15T05:38:21;8.67;;;6.37;;
68653;SDS011;55636;51.108;13.622;2024-01-15T05:39:23;7.37;;;6.23;;
68653;SDS011;55636;51.108;13.622;2024-01-15T05:40:25;7.73;;;6.13;;
68653;SDS011;55636;51.108;13.622;2024-01-15T05:41:28;8.17;;;6.83;;
68653;SDS011;55636;51.108;13.622;2024-01-15T05:42:30;7.63;;;6.10;;
68653;SDS011;55636;51.108;13.622;2024-01-15T05:43:34;8.93;;;6.40;;
68653;SDS011;55636;51.108;13.622;2024-01-15T05:44:36;8.63;;;6.40;;
68653;SDS011;55636;51.108;13.622;2024-01-15T05:45:39;8.60;;;6.77;;
68653;SDS011;55636;51.108;13.622;2024-01-15T05:46:45;8.03;;;6.40;;
68653;SDS011;55636;51.108;13.622;2024-01-15T05:47:48;8.73;;;6.77;;
68653;SDS011;55636;51.108;13.622;2024-01-15T05:48:50;8.17;;;6.80;;
68653;SDS011;55636;51.108;13.622;2024-01-15T05:49:53;7.27;;;6.33;;
68653;SDS011;55636;51.108;13.622;2024-01-15T05:50:57;7.47;;;6.10;;
68653;SDS011;55636;51.108;13.622;2024-01-15T05:51:59;8.43;;;6.57;;
68653;SDS011;55636;51.108;13.622;2024-01-15T05:53:01;7.80;;;6.23;;
68653;SDS011;55636;51.108;13.622;2024-01-15T05:54:05;8.03;;;6.47;;
68653;SDS011;55636;51.108;13.622;2024-01-15T05:55:08;8.03;;;6.53;;
68653;SDS011;55636;51.108;13.622;2024-01-15T05:56:11;8.13;;;6.50;;
68653;SDS011;55636;51.108;13.622;2024-01-15T05:57:14;8.47;;;6.80;;
68653;SDS011;55636;51.108;13.622;2024-01-15T05:58:16;8.80;;;6.50;;
68653;SDS011;55636;51.108;13.622;2024-01-15T05:59:18;8.33;;;6.70;;
68653;SDS011;55636;51.108;13.622;2024-01-15T06:00:21;8.37;;;6.53;;
68653;SDS011;55636;51.108;13.622;2024-01-15T06:01:23;9.20;;;6.63;;
68653;SDS011;55636;51.108;13.622;2024-01-15T06:02:26;9.50;;;6.93;;
68653;SDS011;55636;51.108;13.622;2024-01-15T06:03:28;8.10;;;6.10;;
68653;SDS011;55636;51.108;13.622;2024-01-15T06:04:30;8.00;;;6.27;;
68653;SDS011;55636;51.108;13.622;2024-01-15T06:05:33;8.93;;;6.70;;
68653;SDS011;55636;51.108;13.622;2024-01-15T06:06:35;8.53;;;6.70;;
68653;SDS011;55636;51.108;13.622;2024-01-15T06:07:38;8.33;;;6.70;;
68653;SDS011;55636;51.108;13.622;2024-01-15T06:08:40;7.93;;;6.30;;
68653;SDS011;55636;51.108;13.622;2024-01-15T06:09:42;9.67;;;6.20;;
68653;SDS011;55636;51.108;13.622;2024-01-15T06:10:45;8.50;;;6.63;;
68653;SDS011;55636;51.108;13.622;2024-01-15T06:11:47;8.40;;;6.83;;
68653;SDS011;55636;51.108;13.622;2024-01-15T06:12:50;9.53;;;7.10;;